Abis Bremen — PCJO — position and weather

sailwx.info

Track history (hours):
 
Tides and Currents Weather Stations Pressure Air Temp Water Temp Dewpoint Dewpoint Depression Visibility Wind Speed Wind Dir Waves Ship Positions

Abis Bremen

Last reported at 2019-Jan-22 23:33 UTC. Time now 2019-Jan-23 21:50 UTC.
Position N 58°45' E 017°49'.

Length 90 m; draft 5.2 m.

Type: Ship. MMSI: 246778880.

Date/timePositionNaut miles runAvg speedWind from/ knotsBaromVisibWave heightAir tempDewpointWater temp
2019-Jan-22 23:33N 58°45' E 017°49'0 8.7
2019-Jan-22 23:30N 58°46' E 017°49'710.5
2019-Jan-22 22:52N 58°52' E 017°43'512.1
2019-Jan-22 22:27N 58°57' E 017°43'612.0
2019-Jan-22 21:57N 59°03' E 017°42'7 0.8
2019-Jan-22 13:43N 59°10' E 017°40'0 0.0
2019-Jan-22 12:37N 59°10' E 017°40'0 0.0
2019-Jan-21 14:52N 59°10' E 017°40'0 0.0
2019-Jan-21 14:16N 59°10' E 017°40'0 0.0
2019-Jan-21 12:55N 59°10' E 017°40'0 0.0
2019-Jan-21 12:19N 59°10' E 017°40'0 0.0
2019-Jan-21 10:43N 59°10' E 017°40'0 0.0
2019-Jan-21 09:16N 59°10' E 017°40'0 0.0
2019-Jan-21 08:40N 59°10' E 017°40'0 0.0
2019-Jan-21 08:19N 59°10' E 017°40'0 0.0
2019-Jan-21 07:49N 59°10' E 017°40'0 0.0
2019-Jan-21 07:07N 59°10' E 017°40'0 0.0
2019-Jan-20 08:44N 59°10' E 017°40'3 7.4
2019-Jan-20 08:21N 59°07' E 017°41'3 8.7
2019-Jan-20 08:00N 59°04' E 017°41'510.9
2019-Jan-20 07:31N 58°59' E 017°43'612.0
2019-Jan-20 07:01N 58°53' E 017°43'157 9.1
2019-Jan-19 13:51N 59°19' E 022°44'410.9
2019-Jan-19 13:30N 59°20' E 022°52'  
2019-Jan-17 02:56N 59°23' E 023°58'14 9.9
2019-Jan-17 01:28N 59°24' E 023°30'510.3
2019-Jan-17 00:56N 59°23' E 023°19'28310.8
2019-Jan-15 22:42N 56°07' E 016°57'211.8
2019-Jan-15 22:29N 56°05' E 016°53'611.6
2019-Jan-15 22:00N 56°02' E 016°45'611.4
2019-Jan-15 21:30N 55°59' E 016°37'611.4
2019-Jan-15 21:00N 55°56' E 016°28'611.1
2019-Jan-15 20:30N 55°53' E 016°20'611.2
2019-Jan-15 20:00N 55°50' E 016°11'510.5
2019-Jan-15 19:30N 55°47' E 016°03'510.8
2019-Jan-15 19:00N 55°44' E 015°55'611.5
2019-Jan-15 18:30N 55°41' E 015°46'611.6
2019-Jan-15 18:00N 55°38' E 015°37'611.8
2019-Jan-15 17:30N 55°35' E 015°29'612.0
2019-Jan-15 17:00N 55°32' E 015°20'612.1
2019-Jan-15 16:30N 55°29' E 015°10'612.3
2019-Jan-15 16:00N 55°26' E 015°01'1412.0
2019-Jan-15 14:51N 55°18' E 014°41'412.0
2019-Jan-15 14:30N 55°14' E 014°39'611.8
2019-Jan-15 14:00N 55°08' E 014°37'3 6.6
2019-Jan-15 13:30N 55°06' E 014°41'0 0.0
2019-Jan-15 12:56N 55°06' E 014°41'0 0.0
2019-Jan-15 12:26N 55°06' E 014°41'0 0.0
2019-Jan-15 11:56N 55°06' E 014°41'0 0.0
2019-Jan-15 11:26N 55°06' E 014°41'0 0.0
2019-Jan-15 10:56N 55°06' E 014°41'0 0.0
2019-Jan-15 10:20N 55°06' E 014°41'0 0.0
2019-Jan-15 09:56N 55°06' E 014°41'0 0.0
2019-Jan-15 09:26N 55°06' E 014°41'0 0.0
2019-Jan-15 08:56N 55°06' E 014°41'0 0.0
2019-Jan-15 08:26N 55°06' E 014°41'0 0.0
2019-Jan-15 07:56N 55°06' E 014°41'0 0.0
2019-Jan-15 07:26N 55°06' E 014°41'0 0.0
2019-Jan-15 06:56N 55°06' E 014°41'0 0.0
2019-Jan-15 06:26N 55°06' E 014°41'0 0.0
2019-Jan-15 05:56N 55°06' E 014°41'0 0.0
2019-Jan-15 05:26N 55°06' E 014°41'0 0.0
2019-Jan-15 04:56N 55°06' E 014°41'0 0.0
2019-Jan-15 04:26N 55°06' E 014°41'0 0.0
2019-Jan-15 03:56N 55°06' E 014°41'0 0.0
2019-Jan-15 03:26N 55°06' E 014°41'0 0.0
2019-Jan-15 02:56N 55°06' E 014°41'0 0.0
2019-Jan-15 02:26N 55°06' E 014°41'0 0.0
2019-Jan-15 01:56N 55°06' E 014°41'0 0.0
2019-Jan-15 01:14N 55°06' E 014°41'0 0.0
2019-Jan-15 00:50N 55°06' E 014°41'0 0.0
2019-Jan-15 00:26N 55°06' E 014°41'0 0.0
2019-Jan-14 23:56N 55°06' E 014°41'0 0.0
2019-Jan-14 23:26N 55°06' E 014°41'0 0.0
2019-Jan-14 22:56N 55°06' E 014°41'0 0.0
2019-Jan-14 22:26N 55°06' E 014°41'0 0.0
2019-Jan-14 21:56N 55°06' E 014°41'0 0.0
2019-Jan-14 21:26N 55°06' E 014°41'0 0.0
2019-Jan-14 20:56N 55°06' E 014°41'0 0.0
2019-Jan-14 20:26N 55°06' E 014°41'0 0.0
2019-Jan-14 19:56N 55°06' E 014°41'0 0.0
2019-Jan-14 19:26N 55°06' E 014°41'0 0.0
2019-Jan-14 18:56N 55°06' E 014°41'0 0.0
2019-Jan-14 18:26N 55°06' E 014°41'0 0.0
2019-Jan-14 17:56N 55°06' E 014°41'0 0.0
2019-Jan-14 17:26N 55°06' E 014°41'0 0.0
2019-Jan-14 16:56N 55°06' E 014°41'0 0.0
2019-Jan-14 16:26N 55°06' E 014°41'0 0.0
2019-Jan-14 15:50N 55°06' E 014°41'0 0.0
2019-Jan-14 15:26N 55°06' E 014°41'0 0.0
2019-Jan-14 14:56N 55°06' E 014°41'0 0.0
2019-Jan-14 14:26N 55°06' E 014°41'0 0.0
2019-Jan-14 13:56N 55°06' E 014°41'0 0.0
2019-Jan-14 13:26N 55°06' E 014°41'0 0.0
2019-Jan-14 12:56N 55°06' E 014°41'0 0.0
2019-Jan-14 12:26N 55°06' E 014°41'0 0.0
2019-Jan-14 11:56N 55°06' E 014°41'0 0.0
2019-Jan-14 11:26N 55°06' E 014°41'0 0.0
2019-Jan-14 10:56N 55°06' E 014°41'0 0.0
2019-Jan-14 10:26N 55°06' E 014°41'0 0.0
2019-Jan-14 09:56N 55°06' E 014°41'0 0.0
2019-Jan-14 09:26N 55°06' E 014°41'0 0.0
2019-Jan-14 08:56N 55°06' E 014°41'0 0.0
2019-Jan-14 08:26N 55°06' E 014°41'0 0.0
2019-Jan-14 07:56N 55°06' E 014°41'0 0.0
2019-Jan-14 07:20N 55°06' E 014°41'0 0.0
2019-Jan-14 06:56N 55°06' E 014°41'0 0.0
2019-Jan-14 06:26N 55°06' E 014°41'0 0.0
2019-Jan-14 05:56N 55°06' E 014°41'0 0.0
2019-Jan-14 05:26N 55°06' E 014°41'0 0.0
2019-Jan-14 04:56N 55°06' E 014°41'0 0.0
2019-Jan-14 04:26N 55°06' E 014°41'0 0.0
2019-Jan-14 03:56N 55°06' E 014°41'0 0.0
2019-Jan-14 03:26N 55°06' E 014°41'0 0.0
2019-Jan-14 02:56N 55°06' E 014°41'0 0.0
2019-Jan-14 02:26N 55°06' E 014°41'0 0.0
2019-Jan-14 01:56N 55°06' E 014°41'0 0.0
2019-Jan-14 01:26N 55°06' E 014°41'0 0.0
2019-Jan-14 00:56N 55°06' E 014°41'0 0.0
2019-Jan-14 00:26N 55°06' E 014°41'0 0.0
2019-Jan-13 23:56N 55°06' E 014°41'0 0.0
2019-Jan-13 23:26N 55°06' E 014°41'0 0.0
2019-Jan-13 22:56N 55°06' E 014°41'0 0.0
2019-Jan-13 22:26N 55°06' E 014°41'0 0.0
2019-Jan-13 21:50N 55°06' E 014°41'0 0.0
2019-Jan-13 21:26N 55°06' E 014°41'0 0.0
2019-Jan-13 20:56N 55°06' E 014°41'0 0.0
2019-Jan-13 20:26N 55°06' E 014°41'0 0.0
2019-Jan-13 19:56N 55°06' E 014°41'0 0.0
2019-Jan-13 19:26N 55°06' E 014°41'0 0.0
2019-Jan-13 18:56N 55°06' E 014°41'0 0.0
2019-Jan-13 18:26N 55°06' E 014°41'0 0.0
2019-Jan-13 17:56N 55°06' E 014°41'0 0.0
2019-Jan-13 17:26N 55°06' E 014°41'0 0.0
2019-Jan-13 16:56N 55°06' E 014°41'0 0.0
2019-Jan-13 16:26N 55°06' E 014°41'0 0.0
2019-Jan-13 15:56N 55°06' E 014°41'0 0.0
2019-Jan-13 15:26N 55°06' E 014°41'0 0.0
2019-Jan-13 14:56N 55°06' E 014°41'0 0.0
2019-Jan-13 14:26N 55°06' E 014°41'0 0.0
2019-Jan-13 13:56N 55°06' E 014°41'0 0.0
2019-Jan-13 13:26N 55°06' E 014°41'0 0.0
2019-Jan-13 12:56N 55°06' E 014°41'0 0.0
2019-Jan-13 12:26N 55°06' E 014°41'0 0.0
2019-Jan-13 11:56N 55°06' E 014°41'0 0.0
2019-Jan-13 11:26N 55°06' E 014°41'0 0.0
2019-Jan-13 10:56N 55°06' E 014°41'0 0.0
2019-Jan-13 10:26N 55°06' E 014°41'0 0.0
2019-Jan-13 09:56N 55°06' E 014°41'0 0.0
2019-Jan-13 09:26N 55°06' E 014°41'0 0.0
2019-Jan-13 08:56N 55°06' E 014°41'0 0.0
2019-Jan-13 08:26N 55°06' E 014°41'0 0.0
2019-Jan-13 07:56N 55°06' E 014°41'0 0.0
2019-Jan-13 07:26N 55°06' E 014°41'0 0.0
2019-Jan-13 06:56N 55°06' E 014°41'0 0.0
2019-Jan-13 06:26N 55°06' E 014°41'0 0.0
2019-Jan-13 05:56N 55°06' E 014°41'0 0.0
2019-Jan-13 05:26N 55°06' E 014°41'0 0.0
2019-Jan-13 04:56N 55°06' E 014°41'0 0.0
2019-Jan-13 04:26N 55°06' E 014°41'0 0.0
2019-Jan-13 03:50N 55°06' E 014°41'0 0.0
2019-Jan-13 03:26N 55°06' E 014°41'0 0.0
2019-Jan-13 02:56N 55°06' E 014°41'0 0.0
2019-Jan-13 02:26N 55°06' E 014°41'0 0.0
2019-Jan-13 01:56N 55°06' E 014°41'0 0.0
2019-Jan-13 01:26N 55°06' E 014°41'0 0.0
2019-Jan-13 00:56N 55°06' E 014°41'0 0.0
2019-Jan-13 00:26N 55°06' E 014°41'0 0.0
2019-Jan-12 23:56N 55°06' E 014°41'  
Track history (hours):
 
Tides and Currents Weather Stations Pressure Air Temp Water Temp Dewpoint Dewpoint Depression Visibility Wind Speed Wind Dir Waves Ship Positions

Abis Bremen

Last reported at 2019-Jan-22 23:33 UTC. Time now 2019-Jan-23 21:50 UTC.
Position N 58°45' E 017°49'.

Length 90 m; draft 5.2 m.

Type: Ship. MMSI: 246778880.

Date/timePositionNaut miles runAvg speedWind from/ knotsBaromVisibWave heightAir tempDewpointWater temp
2019-Jan-22 23:33N 58°45' E 017°49'0 8.7
2019-Jan-22 23:30N 58°46' E 017°49'710.5
2019-Jan-22 22:52N 58°52' E 017°43'512.1
2019-Jan-22 22:27N 58°57' E 017°43'612.0
2019-Jan-22 21:57N 59°03' E 017°42'7 0.8
2019-Jan-22 13:43N 59°10' E 017°40'0 0.0
2019-Jan-22 12:37N 59°10' E 017°40'0 0.0
2019-Jan-21 14:52N 59°10' E 017°40'0 0.0
2019-Jan-21 14:16N 59°10' E 017°40'0 0.0
2019-Jan-21 12:55N 59°10' E 017°40'0 0.0
2019-Jan-21 12:19N 59°10' E 017°40'0 0.0
2019-Jan-21 10:43N 59°10' E 017°40'0 0.0
2019-Jan-21 09:16N 59°10' E 017°40'0 0.0
2019-Jan-21 08:40N 59°10' E 017°40'0 0.0
2019-Jan-21 08:19N 59°10' E 017°40'0 0.0
2019-Jan-21 07:49N 59°10' E 017°40'0 0.0
2019-Jan-21 07:07N 59°10' E 017°40'0 0.0
2019-Jan-20 08:44N 59°10' E 017°40'3 7.4
2019-Jan-20 08:21N 59°07' E 017°41'3 8.7
2019-Jan-20 08:00N 59°04' E 017°41'510.9
2019-Jan-20 07:31N 58°59' E 017°43'612.0
2019-Jan-20 07:01N 58°53' E 017°43'157 9.1
2019-Jan-19 13:51N 59°19' E 022°44'410.9
2019-Jan-19 13:30N 59°20' E 022°52'  
2019-Jan-17 02:56N 59°23' E 023°58'14 9.9
2019-Jan-17 01:28N 59°24' E 023°30'510.3
2019-Jan-17 00:56N 59°23' E 023°19'28310.8
2019-Jan-15 22:42N 56°07' E 016°57'211.8
2019-Jan-15 22:29N 56°05' E 016°53'611.6
2019-Jan-15 22:00N 56°02' E 016°45'611.4
2019-Jan-15 21:30N 55°59' E 016°37'611.4
2019-Jan-15 21:00N 55°56' E 016°28'611.1
2019-Jan-15 20:30N 55°53' E 016°20'611.2
2019-Jan-15 20:00N 55°50' E 016°11'510.5
2019-Jan-15 19:30N 55°47' E 016°03'510.8
2019-Jan-15 19:00N 55°44' E 015°55'611.5
2019-Jan-15 18:30N 55°41' E 015°46'611.6
2019-Jan-15 18:00N 55°38' E 015°37'611.8
2019-Jan-15 17:30N 55°35' E 015°29'612.0
2019-Jan-15 17:00N 55°32' E 015°20'612.1
2019-Jan-15 16:30N 55°29' E 015°10'612.3
2019-Jan-15 16:00N 55°26' E 015°01'1412.0
2019-Jan-15 14:51N 55°18' E 014°41'412.0
2019-Jan-15 14:30N 55°14' E 014°39'611.8
2019-Jan-15 14:00N 55°08' E 014°37'3 6.6
2019-Jan-15 13:30N 55°06' E 014°41'0 0.0
2019-Jan-15 12:56N 55°06' E 014°41'0 0.0
2019-Jan-15 12:26N 55°06' E 014°41'0 0.0
2019-Jan-15 11:56N 55°06' E 014°41'0 0.0
2019-Jan-15 11:26N 55°06' E 014°41'0 0.0
2019-Jan-15 10:56N 55°06' E 014°41'0 0.0
2019-Jan-15 10:20N 55°06' E 014°41'0 0.0
2019-Jan-15 09:56N 55°06' E 014°41'0 0.0
2019-Jan-15 09:26N 55°06' E 014°41'0 0.0
2019-Jan-15 08:56N 55°06' E 014°41'0 0.0
2019-Jan-15 08:26N 55°06' E 014°41'0 0.0
2019-Jan-15 07:56N 55°06' E 014°41'0 0.0
2019-Jan-15 07:26N 55°06' E 014°41'0 0.0
2019-Jan-15 06:56N 55°06' E 014°41'0 0.0
2019-Jan-15 06:26N 55°06' E 014°41'0 0.0
2019-Jan-15 05:56N 55°06' E 014°41'0 0.0
2019-Jan-15 05:26N 55°06' E 014°41'0 0.0
2019-Jan-15 04:56N 55°06' E 014°41'0 0.0
2019-Jan-15 04:26N 55°06' E 014°41'0 0.0
2019-Jan-15 03:56N 55°06' E 014°41'0 0.0
2019-Jan-15 03:26N 55°06' E 014°41'0 0.0
2019-Jan-15 02:56N 55°06' E 014°41'0 0.0
2019-Jan-15 02:26N 55°06' E 014°41'0 0.0
2019-Jan-15 01:56N 55°06' E 014°41'0 0.0
2019-Jan-15 01:14N 55°06' E 014°41'0 0.0
2019-Jan-15 00:50N 55°06' E 014°41'0 0.0
2019-Jan-15 00:26N 55°06' E 014°41'0 0.0
2019-Jan-14 23:56N 55°06' E 014°41'0 0.0
2019-Jan-14 23:26N 55°06' E 014°41'0 0.0
2019-Jan-14 22:56N 55°06' E 014°41'0 0.0
2019-Jan-14 22:26N 55°06' E 014°41'0 0.0
2019-Jan-14 21:56N 55°06' E 014°41'0 0.0
2019-Jan-14 21:26N 55°06' E 014°41'0 0.0
2019-Jan-14 20:56N 55°06' E 014°41'0 0.0
2019-Jan-14 20:26N 55°06' E 014°41'0 0.0
2019-Jan-14 19:56N 55°06' E 014°41'0 0.0
2019-Jan-14 19:26N 55°06' E 014°41'0 0.0
2019-Jan-14 18:56N 55°06' E 014°41'0 0.0
2019-Jan-14 18:26N 55°06' E 014°41'0 0.0
2019-Jan-14 17:56N 55°06' E 014°41'0 0.0
2019-Jan-14 17:26N 55°06' E 014°41'0 0.0
2019-Jan-14 16:56N 55°06' E 014°41'0 0.0
2019-Jan-14 16:26N 55°06' E 014°41'0 0.0
2019-Jan-14 15:50N 55°06' E 014°41'0 0.0
2019-Jan-14 15:26N 55°06' E 014°41'0 0.0
2019-Jan-14 14:56N 55°06' E 014°41'0 0.0
2019-Jan-14 14:26N 55°06' E 014°41'0 0.0
2019-Jan-14 13:56N 55°06' E 014°41'0 0.0
2019-Jan-14 13:26N 55°06' E 014°41'0 0.0
2019-Jan-14 12:56N 55°06' E 014°41'0 0.0
2019-Jan-14 12:26N 55°06' E 014°41'0 0.0
2019-Jan-14 11:56N 55°06' E 014°41'0 0.0
2019-Jan-14 11:26N 55°06' E 014°41'0 0.0
2019-Jan-14 10:56N 55°06' E 014°41'0 0.0
2019-Jan-14 10:26N 55°06' E 014°41'0 0.0
2019-Jan-14 09:56N 55°06' E 014°41'0 0.0
2019-Jan-14 09:26N 55°06' E 014°41'0 0.0
2019-Jan-14 08:56N 55°06' E 014°41'0 0.0
2019-Jan-14 08:26N 55°06' E 014°41'0 0.0
2019-Jan-14 07:56N 55°06' E 014°41'0 0.0
2019-Jan-14 07:20N 55°06' E 014°41'0 0.0
2019-Jan-14 06:56N 55°06' E 014°41'0 0.0
2019-Jan-14 06:26N 55°06' E 014°41'0 0.0
2019-Jan-14 05:56N 55°06' E 014°41'0 0.0
2019-Jan-14 05:26N 55°06' E 014°41'0 0.0
2019-Jan-14 04:56N 55°06' E 014°41'0 0.0
2019-Jan-14 04:26N 55°06' E 014°41'0 0.0
2019-Jan-14 03:56N 55°06' E 014°41'0 0.0
2019-Jan-14 03:26N 55°06' E 014°41'0 0.0
2019-Jan-14 02:56N 55°06' E 014°41'0 0.0
2019-Jan-14 02:26N 55°06' E 014°41'0 0.0
2019-Jan-14 01:56N 55°06' E 014°41'0 0.0
2019-Jan-14 01:26N 55°06' E 014°41'0 0.0
2019-Jan-14 00:56N 55°06' E 014°41'0 0.0
2019-Jan-14 00:26N 55°06' E 014°41'0 0.0
2019-Jan-13 23:56N 55°06' E 014°41'0 0.0
2019-Jan-13 23:26N 55°06' E 014°41'0 0.0
2019-Jan-13 22:56N 55°06' E 014°41'0 0.0
2019-Jan-13 22:26N 55°06' E 014°41'0 0.0
2019-Jan-13 21:50N 55°06' E 014°41'0 0.0
2019-Jan-13 21:26N 55°06' E 014°41'0 0.0
2019-Jan-13 20:56N 55°06' E 014°41'0 0.0
2019-Jan-13 20:26N 55°06' E 014°41'0 0.0
2019-Jan-13 19:56N 55°06' E 014°41'0 0.0
2019-Jan-13 19:26N 55°06' E 014°41'0 0.0
2019-Jan-13 18:56N 55°06' E 014°41'0 0.0
2019-Jan-13 18:26N 55°06' E 014°41'0 0.0
2019-Jan-13 17:56N 55°06' E 014°41'0 0.0
2019-Jan-13 17:26N 55°06' E 014°41'0 0.0
2019-Jan-13 16:56N 55°06' E 014°41'0 0.0
2019-Jan-13 16:26N 55°06' E 014°41'0 0.0
2019-Jan-13 15:56N 55°06' E 014°41'0 0.0
2019-Jan-13 15:26N 55°06' E 014°41'0 0.0
2019-Jan-13 14:56N 55°06' E 014°41'0 0.0
2019-Jan-13 14:26N 55°06' E 014°41'0 0.0
2019-Jan-13 13:56N 55°06' E 014°41'0 0.0
2019-Jan-13 13:26N 55°06' E 014°41'0 0.0
2019-Jan-13 12:56N 55°06' E 014°41'0 0.0
2019-Jan-13 12:26N 55°06' E 014°41'0 0.0
2019-Jan-13 11:56N 55°06' E 014°41'0 0.0
2019-Jan-13 11:26N 55°06' E 014°41'0 0.0
2019-Jan-13 10:56N 55°06' E 014°41'0 0.0
2019-Jan-13 10:26N 55°06' E 014°41'0 0.0
2019-Jan-13 09:56N 55°06' E 014°41'0 0.0
2019-Jan-13 09:26N 55°06' E 014°41'0 0.0
2019-Jan-13 08:56N 55°06' E 014°41'0 0.0
2019-Jan-13 08:26N 55°06' E 014°41'0 0.0
2019-Jan-13 07:56N 55°06' E 014°41'0 0.0
2019-Jan-13 07:26N 55°06' E 014°41'0 0.0
2019-Jan-13 06:56N 55°06' E 014°41'0 0.0
2019-Jan-13 06:26N 55°06' E 014°41'0 0.0
2019-Jan-13 05:56N 55°06' E 014°41'0 0.0
2019-Jan-13 05:26N 55°06' E 014°41'0 0.0
2019-Jan-13 04:56N 55°06' E 014°41'0 0.0
2019-Jan-13 04:26N 55°06' E 014°41'0 0.0
2019-Jan-13 03:50N 55°06' E 014°41'0 0.0
2019-Jan-13 03:26N 55°06' E 014°41'0 0.0
2019-Jan-13 02:56N 55°06' E 014°41'0 0.0
2019-Jan-13 02:26N 55°06' E 014°41'0 0.0
2019-Jan-13 01:56N 55°06' E 014°41'0 0.0
2019-Jan-13 01:26N 55°06' E 014°41'0 0.0
2019-Jan-13 00:56N 55°06' E 014°41'0 0.0
2019-Jan-13 00:26N 55°06' E 014°41'0 0.0
2019-Jan-12 23:56N 55°06' E 014°41'  

Dump ship's entire track history